sensor_id;sensor_type;location;lat;lon;timestamp;temperature;humidity
17891;DHT22;9071;48.220;14.480;2023-03-23T00:02:01;7.20;99.90
17891;DHT22;9071;48.220;14.480;2023-03-23T00:07:03;7.20;99.90
17891;DHT22;9071;48.220;14.480;2023-03-23T00:12:07;7.00;99.90
17891;DHT22;9071;48.220;14.480;2023-03-23T00:17:09;6.90;99.90
17891;DHT22;9071;48.220;14.480;2023-03-23T00:22:15;6.80;99.90
17891;DHT22;9071;48.220;14.480;2023-03-23T00:27:22;6.80;99.90
17891;DHT22;9071;48.220;14.480;2023-03-23T00:32:25;6.70;99.90
17891;DHT22;9071;48.220;14.480;2023-03-23T00:37:29;6.60;99.90
17891;DHT22;9071;48.220;14.480;2023-03-23T00:42:32;6.50;99.90
17891;DHT22;9071;48.220;14.480;2023-03-23T00:47:37;6.30;99.90
17891;DHT22;9071;48.220;14.480;2023-03-23T00:52:41;6.30;99.90
17891;DHT22;9071;48.220;14.480;2023-03-23T00:57:44;6.20;99.90
17891;DHT22;9071;48.220;14.480;2023-03-23T01:02:46;6.30;99.90
17891;DHT22;9071;48.220;14.480;2023-03-23T01:07:49;6.30;99.90
17891;DHT22;9071;48.220;14.480;2023-03-23T01:12:53;6.30;99.90
17891;DHT22;9071;48.220;14.480;2023-03-23T01:17:55;6.50;99.90
17891;DHT22;9071;48.220;14.480;2023-03-23T01:22:57;6.50;99.90
17891;DHT22;9071;48.220;14.480;2023-03-23T01:28:02;6.40;99.90
17891;DHT22;9071;48.220;14.480;2023-03-23T01:33:05;6.20;99.90
17891;DHT22;9071;48.220;14.480;2023-03-23T01:38:07;6.20;99.90
17891;DHT22;9071;48.220;14.480;2023-03-23T01:43:14;6.10;99.90
17891;DHT22;9071;48.220;14.480;2023-03-23T01:48:18;6.00;99.90
17891;DHT22;9071;48.220;14.480;2023-03-23T01:53:22;5.90;99.90
17891;DHT22;9071;48.220;14.480;2023-03-23T01:58:31;5.90;99.90
17891;DHT22;9071;48.220;14.480;2023-03-23T02:03:35;5.70;99.90
17891;DHT22;9071;48.220;14.480;2023-03-23T02:08:40;5.60;99.90
17891;DHT22;9071;48.220;14.480;2023-03-23T02:13:46;5.50;99.90
17891;DHT22;9071;48.220;14.480;2023-03-23T02:18:57;5.40;99.90
17891;DHT22;9071;48.220;14.480;2023-03-23T02:24:20;5.40;99.90
17891;DHT22;9071;48.220;14.480;2023-03-23T02:30:00;5.50;99.90
17891;DHT22;9071;48.220;14.480;2023-03-23T02:35:17;5.40;99.90
17891;DHT22;9071;48.220;14.480;2023-03-23T02:40:24;5.30;99.90
17891;DHT22;9071;48.220;14.480;2023-03-23T02:45:28;5.30;99.90
17891;DHT22;9071;48.220;14.480;2023-03-23T02:50:33;5.30;99.90
17891;DHT22;9071;48.220;14.480;2023-03-23T02:55:37;5.20;99.90
17891;DHT22;9071;48.220;14.480;2023-03-23T03:00:41;5.10;99.90
17891;DHT22;9071;48.220;14.480;2023-03-23T03:05:49;5.10;99.90
17891;DHT22;9071;48.220;14.480;2023-03-23T03:10:57;5.10;99.90
17891;DHT22;9071;48.220;14.480;2023-03-23T03:16:05;5.10;99.90
17891;DHT22;9071;48.220;14.480;2023-03-23T03:21:12;5.20;99.90
17891;DHT22;9071;48.220;14.480;2023-03-23T03:26:15;5.20;99.90
17891;DHT22;9071;48.220;14.480;2023-03-23T03:31:24;5.20;99.90
17891;DHT22;9071;48.220;14.480;2023-03-23T03:36:31;5.30;99.90
17891;DHT22;9071;48.220;14.480;2023-03-23T03:41:36;5.30;99.90
17891;DHT22;9071;48.220;14.480;2023-03-23T03:46:38;5.30;99.90
17891;DHT22;9071;48.220;14.480;2023-03-23T03:51:42;5.20;99.90
17891;DHT22;9071;48.220;14.480;2023-03-23T03:56:44;5.20;99.90
17891;DHT22;9071;48.220;14.480;2023-03-23T04:01:47;5.20;99.90
17891;DHT22;9071;48.220;14.480;2023-03-23T04:06:55;5.20;99.90
17891;DHT22;9071;48.220;14.480;2023-03-23T04:11:58;5.30;99.90
17891;DHT22;9071;48.220;14.480;2023-03-23T04:17:00;5.30;99.90
17891;DHT22;9071;48.220;14.480;2023-03-23T04:22:05;5.30;99.90
17891;DHT22;9071;48.220;14.480;2023-03-23T04:27:07;5.20;99.90
17891;DHT22;9071;48.220;14.480;2023-03-23T04:32:09;5.20;99.90
17891;DHT22;9071;48.220;14.480;2023-03-23T04:37:13;5.10;99.90
17891;DHT22;9071;48.220;14.480;2023-03-23T04:42:15;5.00;99.90
17891;DHT22;9071;48.220;14.480;2023-03-23T04:47:17;4.90;99.90
17891;DHT22;9071;48.220;14.480;2023-03-23T04:52:21;5.00;99.90
17891;DHT22;9071;48.220;14.480;2023-03-23T04:57:25;5.00;99.90
17891;DHT22;9071;48.220;14.480;2023-03-23T05:02:29;5.20;99.90
17891;DHT22;9071;48.220;14.480;2023-03-23T05:07:33;5.20;99.90
17891;DHT22;9071;48.220;14.480;2023-03-23T05:12:36;5.20;99.90
17891;DHT22;9071;48.220;14.480;2023-03-23T05:17:38;5.30;99.90
17891;DHT22;9071;48.220;14.480;2023-03-23T05:22:45;5.30;99.90
17891;DHT22;9071;48.220;14.480;2023-03-23T05:27:48;5.30;99.90
17891;DHT22;9071;48.220;14.480;2023-03-23T05:32:53;5.50;99.90
17891;DHT22;9071;48.220;14.480;2023-03-23T05:37:57;5.70;99.90
17891;DHT22;9071;48.220;14.480;2023-03-23T05:42:59;5.80;99.90
17891;DHT22;9071;48.220;14.480;2023-03-23T05:48:01;5.90;99.90
17891;DHT22;9071;48.220;14.480;2023-03-23T05:53:05;6.00;99.90
17891;DHT22;9071;48.220;14.480;2023-03-23T05:58:07;6.10;99.90
17891;DHT22;9071;48.220;14.480;2023-03-23T06:03:09;6.20;99.90
17891;DHT22;9071;48.220;14.480;2023-03-23T06:08:14;6.40;99.90
17891;DHT22;9071;48.220;14.480;2023-03-23T06:13:16;6.70;99.90
17891;DHT22;9071;48.220;14.480;2023-03-23T06:18:18;6.90;99.90
17891;DHT22;9071;48.220;14.480;2023-03-23T06:23:22;7.10;99.90
17891;DHT22;9071;48.220;14.480;2023-03-23T06:28:25;7.20;99.90
17891;DHT22;9071;48.220;14.480;2023-03-23T06:33:27;7.30;99.90
17891;DHT22;9071;48.220;14.480;2023-03-23T06:38:30;7.50;99.90
17891;DHT22;9071;48.220;14.480;2023-03-23T06:43:33;7.70;99.90
17891;DHT22;9071;48.220;14.480;2023-03-23T06:48:36;7.90;99.90
17891;DHT22;9071;48.220;14.480;2023-03-23T06:53:40;8.10;99.90
17891;DHT22;9071;48.220;14.480;2023-03-23T06:58:42;8.30;99.90
17891;DHT22;9071;48.220;14.480;2023-03-23T07:03:46;8.50;99.90
17891;DHT22;9071;48.220;14.480;2023-03-23T07:08:50;8.80;99.90
17891;DHT22;9071;48.220;14.480;2023-03-23T07:13:53;9.10;99.90
17891;DHT22;9071;48.220;14.480;2023-03-23T07:18:55;9.40;99.90
17891;DHT22;9071;48.220;14.480;2023-03-23T07:23:58;9.80;99.90
17891;DHT22;9071;48.220;14.480;2023-03-23T07:29:00;10.10;99.90
17891;DHT22;9071;48.220;14.480;2023-03-23T07:34:03;11.20;99.90
17891;DHT22;9071;48.220;14.480;2023-03-23T07:39:07;12.60;99.90
17891;DHT22;9071;48.220;14.480;2023-03-23T07:44:09;14.40;99.90
17891;DHT22;9071;48.220;14.480;2023-03-23T07:49:12;15.70;99.90
17891;DHT22;9071;48.220;14.480;2023-03-23T07:54:15;17.80;99.90
17891;DHT22;9071;48.220;14.480;2023-03-23T07:59:18;18.70;99.90
17891;DHT22;9071;48.220;14.480;2023-03-23T08:04:21;18.70;99.90
17891;DHT22;9071;48.220;14.480;2023-03-23T08:09:24;19.10;99.90
17891;DHT22;9071;48.220;14.480;2023-03-23T08:14:26;19.60;99.90
17891;DHT22;9071;48.220;14.480;2023-03-23T08:19:29;19.60;99.90
17891;DHT22;9071;48.220;14.480;2023-03-23T08:24:32;19.30;99.90
17891;DHT22;9071;48.220;14.480;2023-03-23T08:29:36;17.50;99.90
17891;DHT22;9071;48.220;14.480;2023-03-23T08:34:38;16.30;99.90
17891;DHT22;9071;48.220;14.480;2023-03-23T08:39:43;15.40;99.90
17891;DHT22;9071;48.220;14.480;2023-03-23T08:44:46;14.80;99.90
17891;DHT22;9071;48.220;14.480;2023-03-23T08:49:48;15.70;99.90
17891;DHT22;9071;48.220;14.480;2023-03-23T08:54:55;18.40;99.90
17891;DHT22;9071;48.220;14.480;2023-03-23T08:59:57;20.20;99.90
17891;DHT22;9071;48.220;14.480;2023-03-23T09:05:02;19.50;99.90
17891;DHT22;9071;48.220;14.480;2023-03-23T09:10:08;17.90;99.90
17891;DHT22;9071;48.220;14.480;2023-03-23T09:15:16;17.00;99.90
17891;DHT22;9071;48.220;14.480;2023-03-23T09:20:20;16.70;99.90
17891;DHT22;9071;48.220;14.480;2023-03-23T09:25:26;16.70;99.90
17891;DHT22;9071;48.220;14.480;2023-03-23T09:30:31;16.50;99.90
17891;DHT22;9071;48.220;14.480;2023-03-23T09:35:35;16.60;99.90
17891;DHT22;9071;48.220;14.480;2023-03-23T09:40:45;17.00;99.90
17891;DHT22;9071;48.220;14.480;2023-03-23T09:45:55;17.70;99.90
17891;DHT22;9071;48.220;14.480;2023-03-23T09:51:02;17.80;99.90
17891;DHT22;9071;48.220;14.480;2023-03-23T09:56:10;17.50;99.90
17891;DHT22;9071;48.220;14.480;2023-03-23T10:01:19;17.50;99.90
17891;DHT22;9071;48.220;14.480;2023-03-23T10:06:22;17.40;99.90
17891;DHT22;9071;48.220;14.480;2023-03-23T10:11:33;17.50;99.90
17891;DHT22;9071;48.220;14.480;2023-03-23T10:16:40;17.40;99.90
17891;DHT22;9071;48.220;14.480;2023-03-23T10:21:46;17.50;99.90
17891;DHT22;9071;48.220;14.480;2023-03-23T10:26:57;17.70;99.90
17891;DHT22;9071;48.220;14.480;2023-03-23T10:32:08;17.90;99.90
17891;DHT22;9071;48.220;14.480;2023-03-23T10:37:14;17.80;99.90
17891;DHT22;9071;48.220;14.480;2023-03-23T10:42:27;18.10;99.90
17891;DHT22;9071;48.220;14.480;2023-03-23T10:47:29;18.60;99.90
17891;DHT22;9071;48.220;14.480;2023-03-23T10:52:35;19.10;99.90
17891;DHT22;9071;48.220;14.480;2023-03-23T10:57:40;19.50;99.90
17891;DHT22;9071;48.220;14.480;2023-03-23T11:02:46;19.30;99.90
17891;DHT22;9071;48.220;14.480;2023-03-23T11:07:52;19.30;99.90
17891;DHT22;9071;48.220;14.480;2023-03-23T11:12:58;19.50;99.90
17891;DHT22;9071;48.220;14.480;2023-03-23T11:18:03;19.70;99.90
17891;DHT22;9071;48.220;14.480;2023-03-23T11:23:10;19.60;99.90
17891;DHT22;9071;48.220;14.480;2023-03-23T11:28:14;19.30;99.90
17891;DHT22;9071;48.220;14.480;2023-03-23T11:33:16;19.70;99.90
17891;DHT22;9071;48.220;14.480;2023-03-23T11:38:22;20.10;99.90
17891;DHT22;9071;48.220;14.480;2023-03-23T11:43:28;20.50;99.90
17891;DHT22;9071;48.220;14.480;2023-03-23T11:48:35;20.20;99.90
17891;DHT22;9071;48.220;14.480;2023-03-23T11:53:45;20.00;99.90
17891;DHT22;9071;48.220;14.480;2023-03-23T11:58:50;20.50;99.90
17891;DHT22;9071;48.220;14.480;2023-03-23T12:09:34;20.60;99.90
17891;DHT22;9071;48.220;14.480;2023-03-23T12:14:50;20.10;99.90
17891;DHT22;9071;48.220;14.480;2023-03-23T12:20:05;19.50;99.90
17891;DHT22;9071;48.220;14.480;2023-03-23T12:25:30;19.80;99.90
17891;DHT22;9071;48.220;14.480;2023-03-23T12:30:38;20.30;99.90
17891;DHT22;9071;48.220;14.480;2023-03-23T12:35:50;20.70;99.90
17891;DHT22;9071;48.220;14.480;2023-03-23T12:41:05;21.10;99.90
17891;DHT22;9071;48.220;14.480;2023-03-23T12:46:23;21.50;99.90
17891;DHT22;9071;48.220;14.480;2023-03-23T12:51:32;21.40;99.90
17891;DHT22;9071;48.220;14.480;2023-03-23T12:56:39;21.10;99.90
17891;DHT22;9071;48.220;14.480;2023-03-23T13:01:46;21.00;99.90
17891;DHT22;9071;48.220;14.480;2023-03-23T13:06:49;20.70;99.90
17891;DHT22;9071;48.220;14.480;2023-03-23T13:11:52;20.80;99.90
17891;DHT22;9071;48.220;14.480;2023-03-23T13:17:03;21.30;99.90
17891;DHT22;9071;48.220;14.480;2023-03-23T13:22:11;21.70;99.90
17891;DHT22;9071;48.220;14.480;2023-03-23T13:27:14;22.00;99.90
17891;DHT22;9071;48.220;14.480;2023-03-23T13:32:19;22.10;99.90
17891;DHT22;9071;48.220;14.480;2023-03-23T13:37:24;22.10;99.90
17891;DHT22;9071;48.220;14.480;2023-03-23T13:42:27;21.80;99.90
17891;DHT22;9071;48.220;14.480;2023-03-23T13:47:38;21.70;99.90
17891;DHT22;9071;48.220;14.480;2023-03-23T13:52:51;21.50;99.90
17891;DHT22;9071;48.220;14.480;2023-03-23T13:57:55;21.60;99.90
17891;DHT22;9071;48.220;14.480;2023-03-23T14:03:05;21.70;99.90
17891;DHT22;9071;48.220;14.480;2023-03-23T14:08:22;21.80;99.90
17891;DHT22;9071;48.220;14.480;2023-03-23T14:13:41;21.50;99.90
17891;DHT22;9071;48.220;14.480;2023-03-23T14:18:51;21.50;99.90
17891;DHT22;9071;48.220;14.480;2023-03-23T14:23:54;21.60;99.90
17891;DHT22;9071;48.220;14.480;2023-03-23T14:28:59;21.50;99.90
17891;DHT22;9071;48.220;14.480;2023-03-23T14:34:04;21.30;99.90
17891;DHT22;9071;48.220;14.480;2023-03-23T14:39:19;21.10;99.90
17891;DHT22;9071;48.220;14.480;2023-03-23T14:44:23;21.00;99.90
17891;DHT22;9071;48.220;14.480;2023-03-23T14:49:31;21.10;99.90
17891;DHT22;9071;48.220;14.480;2023-03-23T14:54:33;21.00;99.90
17891;DHT22;9071;48.220;14.480;2023-03-23T14:59:36;20.80;99.90
17891;DHT22;9071;48.220;14.480;2023-03-23T15:04:40;20.70;99.90
17891;DHT22;9071;48.220;14.480;2023-03-23T15:09:46;20.70;99.90
17891;DHT22;9071;48.220;14.480;2023-03-23T15:14:52;20.60;99.90
17891;DHT22;9071;48.220;14.480;2023-03-23T15:19:56;20.50;99.90
17891;DHT22;9071;48.220;14.480;2023-03-23T15:25:04;20.50;99.90
17891;DHT22;9071;48.220;14.480;2023-03-23T15:30:15;20.50;99.90
17891;DHT22;9071;48.220;14.480;2023-03-23T15:35:22;20.50;99.90
17891;DHT22;9071;48.220;14.480;2023-03-23T15:40:26;20.50;99.90
17891;DHT22;9071;48.220;14.480;2023-03-23T15:45:29;20.50;99.90
17891;DHT22;9071;48.220;14.480;2023-03-23T15:50:36;20.40;99.90
17891;DHT22;9071;48.220;14.480;2023-03-23T15:55:38;20.30;99.90
17891;DHT22;9071;48.220;14.480;2023-03-23T16:00:42;20.20;99.90
17891;DHT22;9071;48.220;14.480;2023-03-23T16:05:45;20.20;99.90
17891;DHT22;9071;48.220;14.480;2023-03-23T16:10:48;20.10;99.90
17891;DHT22;9071;48.220;14.480;2023-03-23T16:15:50;20.10;99.90
17891;DHT22;9071;48.220;14.480;2023-03-23T16:20:53;20.00;99.90
17891;DHT22;9071;48.220;14.480;2023-03-23T16:25:55;19.90;99.90
17891;DHT22;9071;48.220;14.480;2023-03-23T16:30:58;19.80;99.90
17891;DHT22;9071;48.220;14.480;2023-03-23T16:36:02;19.60;99.90
17891;DHT22;9071;48.220;14.480;2023-03-23T16:41:04;19.40;99.90
17891;DHT22;9071;48.220;14.480;2023-03-23T16:46:10;19.10;99.90
17891;DHT22;9071;48.220;14.480;2023-03-23T16:51:14;18.70;99.90
17891;DHT22;9071;48.220;14.480;2023-03-23T16:56:16;18.60;99.90
17891;DHT22;9071;48.220;14.480;2023-03-23T17:01:19;18.30;99.90
17891;DHT22;9071;48.220;14.480;2023-03-23T17:06:23;18.10;99.90
17891;DHT22;9071;48.220;14.480;2023-03-23T17:11:26;17.90;99.90
17891;DHT22;9071;48.220;14.480;2023-03-23T17:16:28;17.60;99.90
17891;DHT22;9071;48.220;14.480;2023-03-23T17:21:31;17.20;99.90
17891;DHT22;9071;48.220;14.480;2023-03-23T17:26:34;17.00;99.90
17891;DHT22;9071;48.220;14.480;2023-03-23T17:31:36;16.70;99.90
17891;DHT22;9071;48.220;14.480;2023-03-23T17:36:40;16.40;99.90
17891;DHT22;9071;48.220;14.480;2023-03-23T17:41:43;16.30;99.90
17891;DHT22;9071;48.220;14.480;2023-03-23T17:46:45;16.10;99.90
17891;DHT22;9071;48.220;14.480;2023-03-23T17:51:50;15.90;99.90
17891;DHT22;9071;48.220;14.480;2023-03-23T17:56:52;15.70;99.90
17891;DHT22;9071;48.220;14.480;2023-03-23T18:01:56;15.50;99.90
17891;DHT22;9071;48.220;14.480;2023-03-23T18:07:00;15.30;99.90
17891;DHT22;9071;48.220;14.480;2023-03-23T18:12:02;15.00;99.90
17891;DHT22;9071;48.220;14.480;2023-03-23T18:17:04;14.80;99.90
17891;DHT22;9071;48.220;14.480;2023-03-23T18:22:08;14.70;99.90
17891;DHT22;9071;48.220;14.480;2023-03-23T18:27:10;14.50;99.90
17891;DHT22;9071;48.220;14.480;2023-03-23T18:32:12;14.40;99.90
17891;DHT22;9071;48.220;14.480;2023-03-23T18:37:16;14.30;99.90
17891;DHT22;9071;48.220;14.480;2023-03-23T18:42:18;14.50;99.90
17891;DHT22;9071;48.220;14.480;2023-03-23T18:47:21;14.50;99.90
17891;DHT22;9071;48.220;14.480;2023-03-23T18:52:24;14.40;99.90
17891;DHT22;9071;48.220;14.480;2023-03-23T18:57:29;14.20;99.90
17891;DHT22;9071;48.220;14.480;2023-03-23T19:02:31;14.00;99.90
17891;DHT22;9071;48.220;14.480;2023-03-23T19:07:36;13.80;99.90
17891;DHT22;9071;48.220;14.480;2023-03-23T19:12:39;13.70;99.90
17891;DHT22;9071;48.220;14.480;2023-03-23T19:17:41;13.70;99.90
17891;DHT22;9071;48.220;14.480;2023-03-23T19:22:45;13.80;99.90
17891;DHT22;9071;48.220;14.480;2023-03-23T19:27:47;13.90;99.90
17891;DHT22;9071;48.220;14.480;2023-03-23T19:32:49;13.80;99.90
17891;DHT22;9071;48.220;14.480;2023-03-23T19:37:53;13.60;99.90
17891;DHT22;9071;48.220;14.480;2023-03-23T19:42:55;13.60;99.90
17891;DHT22;9071;48.220;14.480;2023-03-23T19:47:57;13.60;99.90
17891;DHT22;9071;48.220;14.480;2023-03-23T19:53:01;13.50;99.90
17891;DHT22;9071;48.220;14.480;2023-03-23T19:58:03;13.40;99.90
17891;DHT22;9071;48.220;14.480;2023-03-23T20:03:05;13.30;99.90
17891;DHT22;9071;48.220;14.480;2023-03-23T20:08:09;13.10;99.90
17891;DHT22;9071;48.220;14.480;2023-03-23T20:13:11;13.10;99.90
17891;DHT22;9071;48.220;14.480;2023-03-23T20:18:13;13.20;99.90
17891;DHT22;9071;48.220;14.480;2023-03-23T20:23:19;13.20;99.90
17891;DHT22;9071;48.220;14.480;2023-03-23T20:28:21;13.20;99.90
17891;DHT22;9071;48.220;14.480;2023-03-23T20:33:24;13.20;99.90
17891;DHT22;9071;48.220;14.480;2023-03-23T20:38:27;13.20;99.90
17891;DHT22;9071;48.220;14.480;2023-03-23T20:43:31;13.30;99.90
17891;DHT22;9071;48.220;14.480;2023-03-23T20:48:35;13.20;99.90
17891;DHT22;9071;48.220;14.480;2023-03-23T20:53:38;13.10;99.90
17891;DHT22;9071;48.220;14.480;2023-03-23T20:58:40;13.10;99.90
17891;DHT22;9071;48.220;14.480;2023-03-23T21:03:43;13.00;99.90
17891;DHT22;9071;48.220;14.480;2023-03-23T21:08:46;13.00;99.90
17891;DHT22;9071;48.220;14.480;2023-03-23T21:13:49;13.00;99.90
17891;DHT22;9071;48.220;14.480;2023-03-23T21:18:51;13.00;99.90
17891;DHT22;9071;48.220;14.480;2023-03-23T21:23:55;13.10;99.90
17891;DHT22;9071;48.220;14.480;2023-03-23T21:28:57;13.10;99.90
17891;DHT22;9071;48.220;14.480;2023-03-23T21:34:00;12.90;99.90
17891;DHT22;9071;48.220;14.480;2023-03-23T21:39:04;12.70;99.90
17891;DHT22;9071;48.220;14.480;2023-03-23T21:44:06;12.40;99.90
17891;DHT22;9071;48.220;14.480;2023-03-23T21:49:10;12.20;99.90
17891;DHT22;9071;48.220;14.480;2023-03-23T21:54:15;12.10;99.90
17891;DHT22;9071;48.220;14.480;2023-03-23T21:59:18;12.20;99.90
17891;DHT22;9071;48.220;14.480;2023-03-23T22:04:20;12.10;99.90
17891;DHT22;9071;48.220;14.480;2023-03-23T22:09:23;12.00;99.90
17891;DHT22;9071;48.220;14.480;2023-03-23T22:14:26;11.90;99.90
17891;DHT22;9071;48.220;14.480;2023-03-23T22:19:28;12.10;99.90
17891;DHT22;9071;48.220;14.480;2023-03-23T22:24:32;12.10;99.90
17891;DHT22;9071;48.220;14.480;2023-03-23T22:29:34;11.90;99.90
17891;DHT22;9071;48.220;14.480;2023-03-23T22:34:36;11.70;99.90
17891;DHT22;9071;48.220;14.480;2023-03-23T22:39:40;11.70;99.90
17891;DHT22;9071;48.220;14.480;2023-03-23T22:44:42;11.60;99.90
17891;DHT22;9071;48.220;14.480;2023-03-23T22:49:44;11.50;99.90
17891;DHT22;9071;48.220;14.480;2023-03-23T22:54:48;11.30;99.90
17891;DHT22;9071;48.220;14.480;2023-03-23T22:59:50;11.30;99.90
17891;DHT22;9071;48.220;14.480;2023-03-23T23:04:53;11.20;99.90
17891;DHT22;9071;48.220;14.480;2023-03-23T23:09:56;11.20;99.90
17891;DHT22;9071;48.220;14.480;2023-03-23T23:14:59;11.10;99.90
17891;DHT22;9071;48.220;14.480;2023-03-23T23:20:01;11.00;99.90
17891;DHT22;9071;48.220;14.480;2023-03-23T23:25:07;10.90;99.90
17891;DHT22;9071;48.220;14.480;2023-03-23T23:30:11;10.80;99.90
17891;DHT22;9071;48.220;14.480;2023-03-23T23:35:13;10.70;99.90
17891;DHT22;9071;48.220;14.480;2023-03-23T23:40:18;10.70;99.90
17891;DHT22;9071;48.220;14.480;2023-03-23T23:45:21;10.70;99.90
17891;DHT22;9071;48.220;14.480;2023-03-23T23:50:23;10.70;99.90
17891;DHT22;9071;48.220;14.480;2023-03-23T23:55:27;10.70;99.90
